map of ZUM home
ZUM - Airport
Location
City:  Churchill Falls, Newfoundland and Labrador, Canada
Name:Churchill Falls Airport
ICAO:CZUM
IATA:ZUM

Details
Type:Airport (Airfield)
Use:Public/Civil
Latitude:5333'45"N (53.562500)
Longitude:6406'21"W (-64.105832)
Elevation:1442 ft (440 m)
Variation:20.59W (WMM2015 magnetic declination)
0.21 annual change
Runways:1
Longest:5500 ft (1676 m), paved

Time
Time Zone:UTC-3:30 (DST-2:30)
Local Time:

Weather
METAR:CZUM 201600Z AUTO 27005KT 150V300 9SM CLR M18/M21 A2998 RMK SLP204
TAF:CZUM 201338Z 2014/2102 VRB03KT P6SM SKC
RMK FCST BASED ON AUTO OBS. NXT FCST BY 202000Z

Related Locations
Nearby:
Farthest:YWKS: 11509 mi / 18522 km
Wilkins Runway (Casey), Upper Peterson Glacier, AQ

Find:

   beyond  
but within

Other Information
Maps:
NOTAMs:
Links:
Sources:

  
  • flag of Canada
  • flag of Newfoundland and Labrador
  

Airport Diagram

Airport diagram for ZUM

Airport diagram PDF

Sectional Chart

Flight Planning
at skyvector.com

Satellite Image

Google Maps Satellite view

 

Copyright © 2004-2018 Karl L. Swartz. All rights reserved.
The Great Circle Mapper name and logo are trademarks of the Great Circle Mapper.
All other trademarks mentioned herein belong to their respective owners.
Please see credits for attibutions and further copyright information.

  Follow gcmap on Facebook Follow gcmap on Twitter Follow gcmap on Google+ GCmap on LinkedIn

hCard Microformat

Geo Microformat